createdAt,value
2022-08-03T00:00:37.702Z,9.10
2022-08-03T00:04:33.629Z,7.90
2022-08-03T00:08:26.688Z,8.80
2022-08-03T00:12:19.064Z,9.40
2022-08-03T00:28:03.718Z,9.60
2022-08-03T00:32:00.197Z,9.20
2022-08-03T00:35:54.371Z,9.10
2022-08-03T00:58:49.665Z,9.60
2022-08-03T01:02:41.490Z,9.70
2022-08-03T01:06:35.166Z,8.90
2022-08-03T01:10:36.977Z,9.90
2022-08-03T01:14:32.910Z,9.50
2022-08-03T01:18:43.473Z,10.70
2022-08-03T02:02:15.370Z,10.50
2022-08-03T02:05:44.010Z,9.30
2022-08-03T02:09:36.965Z,9.90
2022-08-03T02:13:29.835Z,14.70
2022-08-03T02:32:24.526Z,9.90
2022-08-03T02:36:16.192Z,9.80
2022-08-03T02:40:11.208Z,10.50
2022-08-03T02:56:07.037Z,9.90
2022-08-03T02:59:57.368Z,10.50
2022-08-03T03:07:51.685Z,9.70
2022-08-03T03:11:45.026Z,9.50
2022-08-03T03:15:38.154Z,11.30
2022-08-03T03:34:34.277Z,10.00
2022-08-03T03:38:26.719Z,11.20
2022-08-03T03:42:11.893Z,11.20
2022-08-03T03:46:03.214Z,12.10
2022-08-03T03:49:56.878Z,11.70
2022-08-03T04:05:42.984Z,11.70
2022-08-03T04:09:36.156Z,11.90
2022-08-03T04:13:29.286Z,12.50
2022-08-03T04:17:26.427Z,12.80
2022-08-03T04:36:35.663Z,10.70
2022-08-03T04:40:29.972Z,10.00
2022-08-03T04:44:28.275Z,13.20
2022-08-03T04:48:21.637Z,10.80
2022-08-03T04:52:15.252Z,11.20
2022-08-03T04:55:56.526Z,11.50
2022-08-03T05:19:43.881Z,12.40
2022-08-03T05:23:26.464Z,12.10
2022-08-03T05:27:17.089Z,10.20
2022-08-03T05:31:06.469Z,10.40
2022-08-03T05:46:44.222Z,10.20
2022-08-03T05:50:28.393Z,9.00
2022-08-03T05:54:20.535Z,8.40
2022-08-03T05:58:12.406Z,8.40
2022-08-03T06:14:02.360Z,7.90
2022-08-03T06:17:58.797Z,7.10
2022-08-03T06:21:53.450Z,7.70
2022-08-03T06:25:33.918Z,7.50
2022-08-03T06:48:43.408Z,8.30
2022-08-03T06:52:38.059Z,8.40
2022-08-03T07:00:08.338Z,6.60
2022-08-03T07:04:03.873Z,7.40
2022-08-03T07:55:11.109Z,5.20
2022-08-03T08:01:48.778Z,3.30
2022-08-03T08:05:00.052Z,5.30
2022-08-03T08:08:01.865Z,4.00
2022-08-03T08:10:57.958Z,3.20
2022-08-03T08:14:05.260Z,4.20
2022-08-03T08:16:51.270Z,4.00
2022-08-03T08:19:54.876Z,3.40
2022-08-03T08:22:32.749Z,4.00
2022-08-03T08:25:12.550Z,2.90
2022-08-03T08:28:22.307Z,3.70
2022-08-03T08:30:56.841Z,2.30
2022-08-03T08:34:04.739Z,2.80
2022-08-03T08:37:01.046Z,2.20
2022-08-03T08:39:51.181Z,3.80
2022-08-03T08:42:32.463Z,3.70
2022-08-03T08:45:18.899Z,3.00
2022-08-03T08:48:14.011Z,2.90
2022-08-03T08:50:46.512Z,2.90
2022-08-03T08:53:34.174Z,2.30
2022-08-03T08:56:18.454Z,5.60
2022-08-03T08:59:00.172Z,3.90
2022-08-03T09:01:46.054Z,2.80
2022-08-03T09:04:20.745Z,3.60
2022-08-03T09:07:18.034Z,2.60
2022-08-03T09:10:11.124Z,3.60
2022-08-03T09:12:53.163Z,2.20
2022-08-03T09:15:34.259Z,2.10
2022-08-03T09:18:12.658Z,3.00
2022-08-03T09:20:48.782Z,5.60
2022-08-03T09:24:00.606Z,2.10
2022-08-03T09:26:30.958Z,4.40
2022-08-03T09:29:11.190Z,2.90
2022-08-03T09:31:47.255Z,2.40
2022-08-03T09:34:28.877Z,2.30
2022-08-03T09:37:02.813Z,2.70
2022-08-03T09:39:42.486Z,2.80
2022-08-03T09:42:25.532Z,4.40
2022-08-03T09:44:58.534Z,2.00
2022-08-03T09:47:44.611Z,2.70
2022-08-03T09:50:21.571Z,2.90
2022-08-03T09:52:53.002Z,2.40
2022-08-03T09:56:34.031Z,7.70
2022-08-03T09:58:21.133Z,4.30
2022-08-03T10:01:23.687Z,3.10
2022-08-03T10:04:03.933Z,1.80
2022-08-03T10:06:42.753Z,2.00
2022-08-03T10:09:17.402Z,3.40
2022-08-03T10:11:57.977Z,2.20
2022-08-03T10:14:32.884Z,3.30
2022-08-03T10:17:03.917Z,3.10
2022-08-03T10:19:38.296Z,2.30
2022-08-03T10:22:22.936Z,3.40
2022-08-03T10:25:12.153Z,3.10
2022-08-03T10:27:48.574Z,2.60
2022-08-03T10:30:18.649Z,3.00
2022-08-03T10:33:51.765Z,2.70
2022-08-03T10:36:20.041Z,3.10
2022-08-03T10:38:53.958Z,1.50
2022-08-03T10:41:46.866Z,3.80
2022-08-03T10:44:24.890Z,1.90
2022-08-03T10:47:08.598Z,3.40
2022-08-03T10:49:39.379Z,1.90
2022-08-03T10:52:32.500Z,2.40
2022-08-03T10:55:54.328Z,3.00
2022-08-03T10:59:00.235Z,1.90
2022-08-03T11:02:01.295Z,3.40
2022-08-03T11:04:31.819Z,3.50
2022-08-03T11:07:26.236Z,2.60
2022-08-03T11:09:57.921Z,1.60
2022-08-03T11:12:32.245Z,2.30
2022-08-03T11:15:09.114Z,2.90
2022-08-03T11:18:10.979Z,2.40
2022-08-03T11:20:53.393Z,2.30
2022-08-03T11:24:05.457Z,3.60
2022-08-03T11:26:39.865Z,1.80
2022-08-03T11:29:32.370Z,3.70
2022-08-03T11:32:02.490Z,1.80
2022-08-03T11:34:32.431Z,2.60
2022-08-03T11:37:28.582Z,1.80
2022-08-03T11:40:02.693Z,2.30
2022-08-03T11:42:36.923Z,2.00
2022-08-03T11:45:09.473Z,2.30
2022-08-03T11:47:50.252Z,2.30
2022-08-03T11:50:22.517Z,1.70
2022-08-03T11:52:54.501Z,2.20
2022-08-03T11:55:28.986Z,3.70
2022-08-03T11:59:09.362Z,1.60
2022-08-03T12:00:52.622Z,1.90
2022-08-03T12:03:23.137Z,3.90
2022-08-03T12:05:54.715Z,2.30
2022-08-03T12:08:34.229Z,2.30
2022-08-03T12:11:07.187Z,3.00
2022-08-03T12:13:56.725Z,3.10
2022-08-03T12:16:34.213Z,3.00
2022-08-03T12:19:07.173Z,1.90
2022-08-03T12:21:57.098Z,4.90
2022-08-03T12:24:40.805Z,3.20
2022-08-03T12:27:12.981Z,2.20
2022-08-03T12:29:43.169Z,1.70
2022-08-03T12:32:29.657Z,2.40
2022-08-03T12:35:02.033Z,2.00
2022-08-03T12:37:32.906Z,3.90
2022-08-03T12:40:10.498Z,3.70
2022-08-03T12:42:41.574Z,2.50
2022-08-03T12:45:21.064Z,2.10
2022-08-03T12:47:55.298Z,2.20
2022-08-03T12:50:31.787Z,2.30
2022-08-03T12:53:05.542Z,2.80
2022-08-03T12:56:05.382Z,1.60
2022-08-03T12:58:34.533Z,2.20
2022-08-03T13:01:09.688Z,2.20
2022-08-03T13:03:49.853Z,1.70
2022-08-03T13:06:29.373Z,1.60
2022-08-03T13:09:07.525Z,4.30
2022-08-03T13:11:53.636Z,1.60
2022-08-03T13:14:27.850Z,2.50
2022-08-03T13:16:58.009Z,3.50
2022-08-03T13:19:28.665Z,1.70
2022-08-03T13:22:04.001Z,2.20
2022-08-03T13:24:34.895Z,1.90
2022-08-03T13:27:31.119Z,1.80
2022-08-03T13:29:59.920Z,4.40
2022-08-03T13:32:30.209Z,2.20
2022-08-03T13:34:59.860Z,1.90
2022-08-03T13:37:32.636Z,2.20
2022-08-03T13:40:05.635Z,2.50
2022-08-03T13:42:38.843Z,4.30
2022-08-03T13:45:10.739Z,2.20
2022-08-03T13:47:41.100Z,2.20
2022-08-03T13:50:09.983Z,1.90
2022-08-03T13:52:39.782Z,1.60
2022-08-03T13:55:10.380Z,1.80
2022-08-03T13:58:02.187Z,2.00
2022-08-03T14:00:31.918Z,3.00
2022-08-03T14:03:13.164Z,1.70
2022-08-03T14:05:44.808Z,3.10
2022-08-03T14:08:17.570Z,1.80
2022-08-03T14:10:47.807Z,4.80
2022-08-03T14:13:18.335Z,2.70
2022-08-03T14:15:50.887Z,2.10
2022-08-03T14:18:28.915Z,2.20
2022-08-03T14:21:06.261Z,3.70
2022-08-03T14:23:38.240Z,2.50
2022-08-03T14:26:09.923Z,2.30
2022-08-03T14:28:39.777Z,3.60
2022-08-03T14:32:09.153Z,4.50
2022-08-03T14:34:01.241Z,3.10
2022-08-03T14:36:31.308Z,3.90
2022-08-03T14:39:05.448Z,3.00
2022-08-03T14:41:37.051Z,2.00
2022-08-03T14:44:08.536Z,3.20
2022-08-03T14:46:40.044Z,3.00
2022-08-03T14:50:34.298Z,3.00
2022-08-03T14:52:01.318Z,4.40
2022-08-03T14:54:32.004Z,5.20
2022-08-03T14:57:02.530Z,2.30
2022-08-03T14:59:55.701Z,3.60
2022-08-03T15:02:24.627Z,2.90
2022-08-03T15:04:54.811Z,2.00
2022-08-03T15:07:25.123Z,3.60
2022-08-03T15:09:55.457Z,4.00
2022-08-03T15:12:26.323Z,2.50
2022-08-03T15:14:56.812Z,3.10
2022-08-03T15:17:26.999Z,2.40
2022-08-03T15:20:03.917Z,4.10
2022-08-03T15:22:48.501Z,3.40
2022-08-03T15:26:04.211Z,2.90
2022-08-03T15:28:11.461Z,4.10
2022-08-03T15:30:41.479Z,6.60
2022-08-03T15:33:11.319Z,4.20
2022-08-03T15:35:42.010Z,2.90
2022-08-03T15:38:12.283Z,3.40
2022-08-03T15:40:42.482Z,1.90
2022-08-03T15:43:12.681Z,2.10
2022-08-03T15:45:45.310Z,3.30
2022-08-03T15:48:15.452Z,3.40
2022-08-03T15:50:45.452Z,2.30
2022-08-03T15:53:14.428Z,5.10
2022-08-03T15:55:44.539Z,3.50
2022-08-03T15:59:10.950Z,2.30
2022-08-03T16:01:08.717Z,2.60
2022-08-03T16:03:38.805Z,2.50
2022-08-03T16:06:09.576Z,2.30
2022-08-03T16:08:39.872Z,2.90
2022-08-03T16:11:10.912Z,6.30
2022-08-03T16:14:13.023Z,3.80
2022-08-03T16:16:42.047Z,3.60
2022-08-03T16:19:12.228Z,3.50
2022-08-03T16:21:48.660Z,3.20
2022-08-03T16:24:23.105Z,2.90
2022-08-03T16:27:00.570Z,1.70
2022-08-03T16:29:30.215Z,2.90
2022-08-03T16:32:09.523Z,2.60
2022-08-03T16:34:40.559Z,3.00
2022-08-03T16:37:35.679Z,2.30
2022-08-03T16:40:02.487Z,3.20
2022-08-03T16:42:31.171Z,3.50
2022-08-03T16:45:02.512Z,2.10
2022-08-03T16:47:33.664Z,2.90
2022-08-03T16:50:11.902Z,1.50
2022-08-03T16:52:47.245Z,2.50
2022-08-03T16:55:43.381Z,3.40
2022-08-03T16:58:18.384Z,4.30
2022-08-03T17:00:55.177Z,4.60
2022-08-03T17:03:27.787Z,2.10
2022-08-03T17:06:07.594Z,2.10
2022-08-03T17:08:55.078Z,1.80
2022-08-03T17:11:28.105Z,4.30
2022-08-03T17:14:07.738Z,3.70
2022-08-03T17:16:52.018Z,2.30
2022-08-03T17:19:47.535Z,3.10
2022-08-03T17:22:39.495Z,2.80
2022-08-03T17:25:22.050Z,2.10
2022-08-03T17:28:50.747Z,3.70
2022-08-03T17:31:22.874Z,3.20
2022-08-03T17:34:09.558Z,4.70
2022-08-03T17:37:26.880Z,2.50
2022-08-03T17:40:17.449Z,3.40
2022-08-03T17:42:56.855Z,3.00
2022-08-03T17:45:52.866Z,5.70
2022-08-03T17:49:24.513Z,5.90
2022-08-03T17:52:04.251Z,5.20
2022-08-03T17:55:57.652Z,3.50
2022-08-03T17:58:22.050Z,2.50
2022-08-03T18:04:29.912Z,5.30
2022-08-03T18:07:19.387Z,3.20
2022-08-03T18:10:16.283Z,3.90
2022-08-03T18:13:10.280Z,9.20
2022-08-03T18:16:27.767Z,6.80
2022-08-03T18:22:46.629Z,4.40
2022-08-03T18:26:07.160Z,5.10
2022-08-03T18:47:16.331Z,5.50
2022-08-03T18:50:31.616Z,6.90
2022-08-03T18:56:20.563Z,12.50
2022-08-03T18:59:51.438Z,7.10
2022-08-03T19:03:20.376Z,8.20
2022-08-03T19:06:19.731Z,7.40
2022-08-03T19:09:28.348Z,6.80
2022-08-03T19:12:32.376Z,7.20
2022-08-03T19:15:51.270Z,8.10
2022-08-03T19:18:50.842Z,8.70
2022-08-03T19:21:59.181Z,5.30
2022-08-03T19:25:01.936Z,5.80
2022-08-03T19:28:17.289Z,5.50
2022-08-03T19:31:31.200Z,5.60
2022-08-03T19:35:18.976Z,5.40
2022-08-03T19:38:52.525Z,6.20
2022-08-03T19:46:05.028Z,5.40
2022-08-03T19:49:57.079Z,5.20
2022-08-03T19:53:35.208Z,4.60
2022-08-03T19:57:17.388Z,3.90
2022-08-03T20:00:39.377Z,7.20
2022-08-03T20:04:13.145Z,5.90
2022-08-03T20:08:05.739Z,4.90
2022-08-03T20:11:51.211Z,5.00
2022-08-03T20:15:31.564Z,4.90
2022-08-03T20:19:17.938Z,5.30
2022-08-03T20:23:12.605Z,3.70
2022-08-03T20:26:53.386Z,5.10
2022-08-03T20:30:29.306Z,3.60
2022-08-03T20:53:45.714Z,4.70
2022-08-03T20:57:17.388Z,4.10
2022-08-03T21:04:13.827Z,3.60
2022-08-03T21:08:17.351Z,3.20
2022-08-03T21:12:10.310Z,5.60
2022-08-03T21:13:02.695Z,6.10
2022-08-03T21:13:04.040Z,3.10
2022-08-03T21:31:48.039Z,6.90
2022-08-03T21:35:39.585Z,7.20
2022-08-03T21:39:32.098Z,6.70
2022-08-03T21:43:24.128Z,6.40
2022-08-03T21:47:17.578Z,8.70
2022-08-03T22:10:59.810Z,6.40
2022-08-03T22:14:49.691Z,7.30
2022-08-03T22:18:49.807Z,4.10
2022-08-03T22:22:41.842Z,4.50
2022-08-03T22:26:48.620Z,3.70
2022-08-03T22:30:39.188Z,5.40
2022-08-03T22:57:56.010Z,10.60
2022-08-03T23:01:51.075Z,11.60
2022-08-03T23:06:02.593Z,21.40
2022-08-03T23:09:56.057Z,18.00
2022-08-03T23:33:24.221Z,9.90
2022-08-03T23:37:16.219Z,6.90
2022-08-03T23:53:12.419Z,8.10
2022-08-03T23:57:19.274Z,5.60
